Socorro, Texas
Current Conditions -  °F | °C
As of 4:41 PM on Friday 24 Oct 2014 (Local Time) from MMCS Reporting Station
Clear Clear  
Wind Chill: 84°   Ceiling: Unl
Heat Index: 84°   Visibility: 10mi
Dew Point: 46°   Wind: 0mph
Humidity: 27%   Direction: NA
Pressure: 30.12"   Gusts: NA
Location:  31.66°N, 106.3°W
Report Text: MMCS 242241Z 00000KT 10SM SKC 29/08 A3012
Loading
Personal Weather Stations






























Interactive Weather Map New forecast layout! Learn more

10-Day Weather Forecast

Advertisements
Track Severe Weather on mobile